sensor_id;sensor_type;location;lat;lon;timestamp;pressure;altitude;pressure_sealevel;temperature;humidity
68193;BME280;55012;47.562;18.414;2023-02-02T00:00:49;99459.50;;;4.61;100.00
68193;BME280;55012;47.562;18.414;2023-02-02T00:03:15;99453.03;;;4.62;100.00
68193;BME280;55012;47.562;18.414;2023-02-02T00:05:48;99465.84;;;4.65;100.00
68193;BME280;55012;47.562;18.414;2023-02-02T00:08:16;99498.28;;;4.63;100.00
68193;BME280;55012;47.562;18.414;2023-02-02T00:10:42;99454.03;;;4.66;100.00
68193;BME280;55012;47.562;18.414;2023-02-02T00:13:09;99564.19;;;4.64;100.00
68193;BME280;55012;47.562;18.414;2023-02-02T00:15:35;99600.66;;;4.33;100.00
68193;BME280;55012;47.562;18.414;2023-02-02T00:18:00;99616.72;;;3.62;100.00
68193;BME280;55012;47.562;18.414;2023-02-02T00:20:26;99590.69;;;3.30;100.00
68193;BME280;55012;47.562;18.414;2023-02-02T00:22:52;99592.41;;;3.02;100.00
68193;BME280;55012;47.562;18.414;2023-02-02T00:25:17;99673.06;;;2.80;100.00
68193;BME280;55012;47.562;18.414;2023-02-02T00:27:43;99676.94;;;2.64;100.00
68193;BME280;55012;47.562;18.414;2023-02-02T00:30:08;99647.75;;;2.49;100.00
68193;BME280;55012;47.562;18.414;2023-02-02T00:32:34;99583.50;;;2.35;100.00
68193;BME280;55012;47.562;18.414;2023-02-02T00:34:59;99675.69;;;2.22;100.00
68193;BME280;55012;47.562;18.414;2023-02-02T00:37:25;99660.56;;;2.13;100.00
68193;BME280;55012;47.562;18.414;2023-02-02T00:39:50;99655.28;;;2.08;100.00
68193;BME280;55012;47.562;18.414;2023-02-02T00:42:16;99657.69;;;2.04;100.00
68193;BME280;55012;47.562;18.414;2023-02-02T00:44:42;99656.13;;;1.98;100.00
68193;BME280;55012;47.562;18.414;2023-02-02T00:47:26;99635.84;;;1.97;100.00
68193;BME280;55012;47.562;18.414;2023-02-02T00:49:51;99661.75;;;1.96;100.00
68193;BME280;55012;47.562;18.414;2023-02-02T00:52:17;99643.88;;;1.97;100.00
68193;BME280;55012;47.562;18.414;2023-02-02T00:54:42;99656.91;;;1.98;100.00
68193;BME280;55012;47.562;18.414;2023-02-02T00:57:12;99617.97;;;1.97;100.00
68193;BME280;55012;47.562;18.414;2023-02-02T00:59:37;99609.75;;;1.94;100.00
68193;BME280;55012;47.562;18.414;2023-02-02T01:02:03;99585.75;;;1.89;100.00
68193;BME280;55012;47.562;18.414;2023-02-02T01:04:29;99601.28;;;1.82;100.00
68193;BME280;55012;47.562;18.414;2023-02-02T01:06:54;99638.13;;;1.80;100.00
68193;BME280;55012;47.562;18.414;2023-02-02T01:09:20;99637.88;;;1.76;100.00
68193;BME280;55012;47.562;18.414;2023-02-02T01:11:45;99615.50;;;1.72;100.00
68193;BME280;55012;47.562;18.414;2023-02-02T01:14:11;99624.28;;;1.73;100.00
68193;BME280;55012;47.562;18.414;2023-02-02T01:16:36;99627.75;;;1.73;100.00
68193;BME280;55012;47.562;18.414;2023-02-02T01:19:01;99632.56;;;1.71;100.00
68193;BME280;55012;47.562;18.414;2023-02-02T01:21:27;99622.75;;;1.66;100.00
68193;BME280;55012;47.562;18.414;2023-02-02T01:23:52;99635.28;;;1.66;100.00
68193;BME280;55012;47.562;18.414;2023-02-02T01:26:18;99624.88;;;1.64;100.00
68193;BME280;55012;47.562;18.414;2023-02-02T01:28:44;99611.00;;;1.67;100.00
68193;BME280;55012;47.562;18.414;2023-02-02T01:31:16;99595.22;;;1.71;100.00
68193;BME280;55012;47.562;18.414;2023-02-02T01:33:42;99589.06;;;1.76;100.00
68193;BME280;55012;47.562;18.414;2023-02-02T01:36:14;99589.28;;;1.84;100.00
68193;BME280;55012;47.562;18.414;2023-02-02T01:38:40;99595.34;;;1.90;100.00
68193;BME280;55012;47.562;18.414;2023-02-02T01:41:07;99601.75;;;1.94;100.00
68193;BME280;55012;47.562;18.414;2023-02-02T01:46:14;99584.63;;;2.00;100.00
68193;BME280;55012;47.562;18.414;2023-02-02T01:48:44;99586.16;;;2.06;100.00
68193;BME280;55012;47.562;18.414;2023-02-02T01:51:15;99570.41;;;2.10;100.00
68193;BME280;55012;47.562;18.414;2023-02-02T01:53:42;99565.84;;;2.10;100.00
68193;BME280;55012;47.562;18.414;2023-02-02T01:56:10;99548.25;;;2.09;100.00
68193;BME280;55012;47.562;18.414;2023-02-02T01:58:39;99540.47;;;2.13;100.00
68193;BME280;55012;47.562;18.414;2023-02-02T02:01:06;99522.88;;;2.12;100.00
68193;BME280;55012;47.562;18.414;2023-02-02T02:03:34;99508.41;;;2.18;100.00
68193;BME280;55012;47.562;18.414;2023-02-02T02:06:04;99512.88;;;2.22;100.00
68193;BME280;55012;47.562;18.414;2023-02-02T02:09:01;99534.69;;;2.30;100.00
68193;BME280;55012;47.562;18.414;2023-02-02T02:11:28;99547.50;;;2.33;100.00
68193;BME280;55012;47.562;18.414;2023-02-02T02:13:56;99565.91;;;2.34;100.00
68193;BME280;55012;47.562;18.414;2023-02-02T02:29:09;99564.81;;;2.35;100.00
68193;BME280;55012;47.562;18.414;2023-02-02T02:36:52;99556.66;;;2.21;100.00
68193;BME280;55012;47.562;18.414;2023-02-02T02:39:39;99556.19;;;2.14;100.00
68193;BME280;55012;47.562;18.414;2023-02-02T02:42:14;99546.31;;;2.15;100.00
68193;BME280;55012;47.562;18.414;2023-02-02T02:44:40;99554.31;;;2.15;100.00
68193;BME280;55012;47.562;18.414;2023-02-02T02:47:07;99550.34;;;2.12;100.00
68193;BME280;55012;47.562;18.414;2023-02-02T02:49:32;99557.28;;;2.13;100.00
68193;BME280;55012;47.562;18.414;2023-02-02T02:51:58;99573.34;;;2.08;100.00
68193;BME280;55012;47.562;18.414;2023-02-02T02:54:33;99589.63;;;2.07;100.00
68193;BME280;55012;47.562;18.414;2023-02-02T02:59:54;99548.81;;;2.06;100.00
68193;BME280;55012;47.562;18.414;2023-02-02T03:10:41;99591.78;;;2.05;100.00
68193;BME280;55012;47.562;18.414;2023-02-02T03:13:10;99609.94;;;2.03;100.00
68193;BME280;55012;47.562;18.414;2023-02-02T03:15:36;99585.72;;;1.99;100.00
68193;BME280;55012;47.562;18.414;2023-02-02T03:18:01;99572.63;;;1.97;100.00
68193;BME280;55012;47.562;18.414;2023-02-02T03:20:27;99587.84;;;1.97;100.00
68193;BME280;55012;47.562;18.414;2023-02-02T03:22:52;99596.97;;;1.91;100.00
68193;BME280;55012;47.562;18.414;2023-02-02T03:25:18;99605.56;;;1.83;100.00
68193;BME280;55012;47.562;18.414;2023-02-02T03:27:43;99563.22;;;1.71;100.00
68193;BME280;55012;47.562;18.414;2023-02-02T03:30:11;99593.66;;;1.65;100.00
68193;BME280;55012;47.562;18.414;2023-02-02T03:32:37;99566.28;;;1.54;100.00
68193;BME280;55012;47.562;18.414;2023-02-02T03:35:03;99571.13;;;1.47;100.00
68193;BME280;55012;47.562;18.414;2023-02-02T03:37:29;99574.94;;;1.36;100.00
68193;BME280;55012;47.562;18.414;2023-02-02T03:39:54;99607.47;;;1.33;100.00
68193;BME280;55012;47.562;18.414;2023-02-02T03:42:20;99589.91;;;1.27;100.00
68193;BME280;55012;47.562;18.414;2023-02-02T03:44:45;99584.31;;;1.28;100.00
68193;BME280;55012;47.562;18.414;2023-02-02T03:47:11;99602.16;;;1.28;100.00
68193;BME280;55012;47.562;18.414;2023-02-02T03:49:36;99615.78;;;1.21;100.00
68193;BME280;55012;47.562;18.414;2023-02-02T03:52:02;99612.06;;;1.17;100.00
68193;BME280;55012;47.562;18.414;2023-02-02T03:54:29;99592.13;;;1.09;100.00
68193;BME280;55012;47.562;18.414;2023-02-02T03:56:54;99595.59;;;1.05;100.00
68193;BME280;55012;47.562;18.414;2023-02-02T03:59:20;99610.53;;;1.01;100.00
68193;BME280;55012;47.562;18.414;2023-02-02T04:01:45;99603.13;;;0.93;100.00
68193;BME280;55012;47.562;18.414;2023-02-02T04:04:11;99607.66;;;0.87;100.00
68193;BME280;55012;47.562;18.414;2023-02-02T04:06:36;99592.50;;;0.77;100.00
68193;BME280;55012;47.562;18.414;2023-02-02T04:09:02;99593.31;;;0.73;100.00
68193;BME280;55012;47.562;18.414;2023-02-02T04:11:27;99580.53;;;0.70;100.00
68193;BME280;55012;47.562;18.414;2023-02-02T04:13:53;99583.50;;;0.68;100.00
68193;BME280;55012;47.562;18.414;2023-02-02T04:16:18;99580.84;;;0.63;100.00
68193;BME280;55012;47.562;18.414;2023-02-02T04:18:44;99587.50;;;0.61;100.00
68193;BME280;55012;47.562;18.414;2023-02-02T04:21:09;99577.38;;;0.63;100.00
68193;BME280;55012;47.562;18.414;2023-02-02T04:23:35;99595.47;;;0.66;100.00
68193;BME280;55012;47.562;18.414;2023-02-02T04:26:01;99582.41;;;0.64;100.00
68193;BME280;55012;47.562;18.414;2023-02-02T04:28:27;99576.84;;;0.61;100.00
68193;BME280;55012;47.562;18.414;2023-02-02T04:30:54;99589.38;;;0.55;100.00
68193;BME280;55012;47.562;18.414;2023-02-02T04:33:21;99568.34;;;0.53;100.00
68193;BME280;55012;47.562;18.414;2023-02-02T04:35:46;99571.28;;;0.52;100.00
68193;BME280;55012;47.562;18.414;2023-02-02T04:38:12;99573.94;;;0.52;100.00
68193;BME280;55012;47.562;18.414;2023-02-02T04:40:39;99575.25;;;0.54;100.00
68193;BME280;55012;47.562;18.414;2023-02-02T04:43:05;99568.63;;;0.52;100.00
68193;BME280;55012;47.562;18.414;2023-02-02T04:45:31;99578.47;;;0.51;100.00
68193;BME280;55012;47.562;18.414;2023-02-02T04:47:56;99571.00;;;0.48;100.00
68193;BME280;55012;47.562;18.414;2023-02-02T04:50:22;99590.19;;;0.45;100.00
68193;BME280;55012;47.562;18.414;2023-02-02T04:52:47;99584.63;;;0.42;100.00
68193;BME280;55012;47.562;18.414;2023-02-02T04:55:13;99599.00;;;0.36;100.00
68193;BME280;55012;47.562;18.414;2023-02-02T04:57:38;99604.59;;;0.34;100.00
68193;BME280;55012;47.562;18.414;2023-02-02T05:00:04;99613.38;;;0.35;100.00
68193;BME280;55012;47.562;18.414;2023-02-02T05:02:30;99623.19;;;0.39;100.00
68193;BME280;55012;47.562;18.414;2023-02-02T05:04:56;99629.03;;;0.46;100.00
68193;BME280;55012;47.562;18.414;2023-02-02T05:07:21;99634.09;;;0.53;100.00
68193;BME280;55012;47.562;18.414;2023-02-02T05:09:46;99637.81;;;0.62;100.00
68193;BME280;55012;47.562;18.414;2023-02-02T05:12:12;99636.97;;;0.72;100.00
68193;BME280;55012;47.562;18.414;2023-02-02T05:14:37;99639.88;;;0.80;100.00
68193;BME280;55012;47.562;18.414;2023-02-02T05:17:03;99648.16;;;0.84;100.00
68193;BME280;55012;47.562;18.414;2023-02-02T05:19:28;99651.06;;;0.82;100.00
68193;BME280;55012;47.562;18.414;2023-02-02T05:21:54;99642.81;;;0.84;100.00
68193;BME280;55012;47.562;18.414;2023-02-02T05:24:19;99636.72;;;0.83;100.00
68193;BME280;55012;47.562;18.414;2023-02-02T05:26:45;99635.63;;;0.79;100.00
68193;BME280;55012;47.562;18.414;2023-02-02T05:29:10;99654.03;;;0.71;100.00
68193;BME280;55012;47.562;18.414;2023-02-02T05:31:36;99627.44;;;0.61;100.00
68193;BME280;55012;47.562;18.414;2023-02-02T05:34:02;99636.75;;;0.58;100.00
68193;BME280;55012;47.562;18.414;2023-02-02T05:36:27;99634.91;;;0.53;100.00
68193;BME280;55012;47.562;18.414;2023-02-02T05:38:53;99614.66;;;0.47;100.00
68193;BME280;55012;47.562;18.414;2023-02-02T05:41:19;99615.50;;;0.43;100.00
68193;BME280;55012;47.562;18.414;2023-02-02T05:43:44;99620.00;;;0.37;100.00
68193;BME280;55012;47.562;18.414;2023-02-02T05:46:10;99608.84;;;0.30;100.00
68193;BME280;55012;47.562;18.414;2023-02-02T05:48:36;99626.94;;;0.28;100.00
68193;BME280;55012;47.562;18.414;2023-02-02T05:51:31;99640.50;;;0.21;100.00
68193;BME280;55012;47.562;18.414;2023-02-02T05:53:55;99642.63;;;0.14;100.00
68193;BME280;55012;47.562;18.414;2023-02-02T05:56:21;99648.47;;;0.06;100.00
68193;BME280;55012;47.562;18.414;2023-02-02T05:58:46;99652.19;;;0.05;100.00
68193;BME280;55012;47.562;18.414;2023-02-02T06:01:15;99646.91;;;0.00;100.00
68193;BME280;55012;47.562;18.414;2023-02-02T06:03:41;99648.75;;;-0.06;100.00
68193;BME280;55012;47.562;18.414;2023-02-02T06:06:07;99645.00;;;-0.10;100.00
68193;BME280;55012;47.562;18.414;2023-02-02T06:08:33;99635.69;;;-0.12;100.00
68193;BME280;55012;47.562;18.414;2023-02-02T06:10:58;99645.00;;;-0.10;100.00
68193;BME280;55012;47.562;18.414;2023-02-02T06:13:24;99646.09;;;-0.06;100.00
68193;BME280;55012;47.562;18.414;2023-02-02T06:15:49;99642.38;;;-0.05;100.00
68193;BME280;55012;47.562;18.414;2023-02-02T06:18:14;99643.97;;;-0.04;100.00
68193;BME280;55012;47.562;18.414;2023-02-02T06:20:40;99631.72;;;-0.05;100.00
68193;BME280;55012;47.562;18.414;2023-02-02T06:23:06;99627.19;;;-0.04;100.00
68193;BME280;55012;47.562;18.414;2023-02-02T06:25:32;99638.09;;;-0.06;100.00
68193;BME280;55012;47.562;18.414;2023-02-02T06:27:59;99631.47;;;-0.08;100.00
68193;BME280;55012;47.562;18.414;2023-02-02T06:30:26;99643.69;;;-0.07;100.00
68193;BME280;55012;47.562;18.414;2023-02-02T06:32:52;99636.53;;;-0.07;100.00
68193;BME280;55012;47.562;18.414;2023-02-02T06:35:18;99645.28;;;-0.06;100.00
68193;BME280;55012;47.562;18.414;2023-02-02T06:37:44;99640.50;;;-0.04;100.00
68193;BME280;55012;47.562;18.414;2023-02-02T06:40:10;99640.22;;;-0.03;100.00
68193;BME280;55012;47.562;18.414;2023-02-02T06:42:35;99636.25;;;-0.05;100.00
68193;BME280;55012;47.562;18.414;2023-02-02T06:45:02;99626.41;;;0.01;100.00
68193;BME280;55012;47.562;18.414;2023-02-02T06:47:28;99648.22;;;0.03;100.00
68193;BME280;55012;47.562;18.414;2023-02-02T06:49:56;99634.41;;;0.11;100.00
68193;BME280;55012;47.562;18.414;2023-02-02T06:52:21;99627.22;;;0.21;100.00
68193;BME280;55012;47.562;18.414;2023-02-02T06:54:47;99644.22;;;0.31;100.00
68193;BME280;55012;47.562;18.414;2023-02-02T06:57:12;99646.91;;;0.36;100.00
68193;BME280;55012;47.562;18.414;2023-02-02T06:59:37;99651.41;;;0.45;100.00
68193;BME280;55012;47.562;18.414;2023-02-02T07:02:05;99664.97;;;0.49;100.00
68193;BME280;55012;47.562;18.414;2023-02-02T07:04:30;99658.84;;;0.53;100.00
68193;BME280;55012;47.562;18.414;2023-02-02T07:06:56;99655.91;;;0.60;100.00
68193;BME280;55012;47.562;18.414;2023-02-02T07:09:21;99668.97;;;0.67;100.00
68193;BME280;55012;47.562;18.414;2023-02-02T07:11:47;99658.03;;;0.68;100.00
68193;BME280;55012;47.562;18.414;2023-02-02T07:14:12;99654.31;;;0.64;100.00
68193;BME280;55012;47.562;18.414;2023-02-02T07:16:38;99670.03;;;0.61;100.00
68193;BME280;55012;47.562;18.414;2023-02-02T07:19:03;99664.44;;;0.57;100.00
68193;BME280;55012;47.562;18.414;2023-02-02T07:21:29;99658.84;;;0.59;100.00
68193;BME280;55012;47.562;18.414;2023-02-02T07:24:02;99664.97;;;0.59;100.00
68193;BME280;55012;47.562;18.414;2023-02-02T07:26:28;99674.81;;;0.64;100.00
68193;BME280;55012;47.562;18.414;2023-02-02T07:28:54;99689.44;;;0.66;100.00
68193;BME280;55012;47.562;18.414;2023-02-02T07:31:25;99692.09;;;0.76;100.00
68193;BME280;55012;47.562;18.414;2023-02-02T07:33:51;99691.56;;;0.84;100.00
68193;BME280;55012;47.562;18.414;2023-02-02T07:36:19;99683.00;;;0.98;100.00
68193;BME280;55012;47.562;18.414;2023-02-02T07:38:46;99688.03;;;1.09;100.00
68193;BME280;55012;47.562;18.414;2023-02-02T07:41:13;99688.28;;;1.18;100.00
68193;BME280;55012;47.562;18.414;2023-02-02T07:43:39;99690.91;;;1.33;100.00
68193;BME280;55012;47.562;18.414;2023-02-02T07:46:07;99691.38;;;1.46;100.00
68193;BME280;55012;47.562;18.414;2023-02-02T07:48:34;99691.84;;;1.58;100.00
68193;BME280;55012;47.562;18.414;2023-02-02T07:51:05;99692.88;;;1.67;100.00
68193;BME280;55012;47.562;18.414;2023-02-02T07:53:32;99708.81;;;1.82;100.00
68193;BME280;55012;47.562;18.414;2023-02-02T07:56:25;99680.31;;;2.12;100.00
68193;BME280;55012;47.562;18.414;2023-02-02T07:58:53;99709.56;;;2.32;100.00
68193;BME280;55012;47.562;18.414;2023-02-02T08:01:19;99659.03;;;2.41;100.00
68193;BME280;55012;47.562;18.414;2023-02-02T08:03:47;99686.91;;;2.59;100.00
68193;BME280;55012;47.562;18.414;2023-02-02T08:06:25;99750.13;;;2.68;100.00
68193;BME280;55012;47.562;18.414;2023-02-02T08:08:52;99784.56;;;2.70;100.00
68193;BME280;55012;47.562;18.414;2023-02-02T08:11:19;99719.38;;;2.71;100.00
68193;BME280;55012;47.562;18.414;2023-02-02T08:13:50;99706.72;;;2.81;100.00
68193;BME280;55012;47.562;18.414;2023-02-02T08:16:17;99690.75;;;2.76;100.00
68193;BME280;55012;47.562;18.414;2023-02-02T08:18:42;99749.22;;;2.78;100.00
68193;BME280;55012;47.562;18.414;2023-02-02T08:21:08;99723.03;;;2.80;100.00
68193;BME280;55012;47.562;18.414;2023-02-02T08:23:38;99742.09;;;2.68;100.00
68193;BME280;55012;47.562;18.414;2023-02-02T08:26:15;99756.53;;;2.67;100.00
68193;BME280;55012;47.562;18.414;2023-02-02T08:28:43;99723.44;;;2.63;100.00
68193;BME280;55012;47.562;18.414;2023-02-02T08:31:14;99655.88;;;2.63;100.00
68193;BME280;55012;47.562;18.414;2023-02-02T08:33:40;99642.34;;;2.54;100.00
68193;BME280;55012;47.562;18.414;2023-02-02T08:36:14;99690.13;;;2.56;100.00
68193;BME280;55012;47.562;18.414;2023-02-02T08:38:40;99646.09;;;2.53;100.00
68193;BME280;55012;47.562;18.414;2023-02-02T08:41:07;99647.34;;;2.61;100.00
68193;BME280;55012;47.562;18.414;2023-02-02T08:43:33;99659.00;;;2.70;100.00
68193;BME280;55012;47.562;18.414;2023-02-02T08:45:59;99742.25;;;2.82;100.00
68193;BME280;55012;47.562;18.414;2023-02-02T08:48:24;99759.03;;;2.88;100.00
68193;BME280;55012;47.562;18.414;2023-02-02T08:50:53;99695.94;;;2.92;100.00
68193;BME280;55012;47.562;18.414;2023-02-02T08:53:20;99688.09;;;3.00;100.00
68193;BME280;55012;47.562;18.414;2023-02-02T08:55:46;99680.81;;;3.06;100.00
68193;BME280;55012;47.562;18.414;2023-02-02T08:58:12;99713.34;;;3.13;100.00
68193;BME280;55012;47.562;18.414;2023-02-02T09:00:37;99715.13;;;3.23;100.00
68193;BME280;55012;47.562;18.414;2023-02-02T09:03:03;99701.41;;;3.29;100.00
68193;BME280;55012;47.562;18.414;2023-02-02T09:05:29;99737.50;;;3.32;100.00
68193;BME280;55012;47.562;18.414;2023-02-02T09:07:54;99699.47;;;3.35;100.00
68193;BME280;55012;47.562;18.414;2023-02-02T09:10:20;99722.16;;;3.37;100.00
68193;BME280;55012;47.562;18.414;2023-02-02T09:12:45;99661.91;;;3.45;100.00
68193;BME280;55012;47.562;18.414;2023-02-02T09:15:11;99785.69;;;3.51;100.00
68193;BME280;55012;47.562;18.414;2023-02-02T09:17:37;99730.19;;;3.61;100.00
68193;BME280;55012;47.562;18.414;2023-02-02T09:20:02;99739.50;;;3.64;100.00
68193;BME280;55012;47.562;18.414;2023-02-02T09:22:29;99749.69;;;3.62;100.00
68193;BME280;55012;47.562;18.414;2023-02-02T09:24:54;99771.41;;;3.60;100.00
68193;BME280;55012;47.562;18.414;2023-02-02T09:27:20;99719.72;;;3.65;100.00
68193;BME280;55012;47.562;18.414;2023-02-02T09:29:45;99734.09;;;3.69;100.00
68193;BME280;55012;47.562;18.414;2023-02-02T09:32:12;99736.28;;;3.67;100.00
68193;BME280;55012;47.562;18.414;2023-02-02T09:34:37;99699.03;;;3.71;100.00
68193;BME280;55012;47.562;18.414;2023-02-02T09:37:03;99785.19;;;3.73;100.00
68193;BME280;55012;47.562;18.414;2023-02-02T09:39:28;99766.44;;;3.73;100.00
68193;BME280;55012;47.562;18.414;2023-02-02T09:43:02;99682.78;;;3.86;100.00
68193;BME280;55012;47.562;18.414;2023-02-02T09:47:51;99741.28;;;3.92;100.00
68193;BME280;55012;47.562;18.414;2023-02-02T09:55:26;99718.09;;;4.07;100.00
68193;BME280;55012;47.562;18.414;2023-02-02T09:58:20;99695.78;;;4.11;100.00
68193;BME280;55012;47.562;18.414;2023-02-02T10:01:08;99681.09;;;4.09;100.00
68193;BME280;55012;47.562;18.414;2023-02-02T10:03:40;99715.25;;;3.98;100.00
68193;BME280;55012;47.562;18.414;2023-02-02T10:08:47;99724.59;;;4.01;100.00
68193;BME280;55012;47.562;18.414;2023-02-02T10:11:30;99707.09;;;4.08;100.00
68193;BME280;55012;47.562;18.414;2023-02-02T10:14:14;99718.53;;;4.14;100.00
68193;BME280;55012;47.562;18.414;2023-02-02T10:16:42;99735.09;;;4.16;100.00
68193;BME280;55012;47.562;18.414;2023-02-02T10:19:11;99726.25;;;4.15;100.00
68193;BME280;55012;47.562;18.414;2023-02-02T10:21:39;99687.88;;;4.20;100.00
68193;BME280;55012;47.562;18.414;2023-02-02T10:27:31;99685.19;;;4.39;100.00
68193;BME280;55012;47.562;18.414;2023-02-02T10:32:38;99726.06;;;4.44;100.00
68193;BME280;55012;47.562;18.414;2023-02-02T10:46:05;99616.81;;;4.74;100.00
68193;BME280;55012;47.562;18.414;2023-02-02T10:48:43;99646.69;;;4.81;100.00
68193;BME280;55012;47.562;18.414;2023-02-02T10:51:23;99679.44;;;4.78;100.00
68193;BME280;55012;47.562;18.414;2023-02-02T10:53:52;99596.75;;;4.85;100.00
68193;BME280;55012;47.562;18.414;2023-02-02T10:56:23;99681.00;;;4.79;100.00
68193;BME280;55012;47.562;18.414;2023-02-02T10:59:23;99706.34;;;4.73;100.00
68193;BME280;55012;47.562;18.414;2023-02-02T11:01:52;99673.78;;;4.79;100.00
68193;BME280;55012;47.562;18.414;2023-02-02T11:04:19;99687.28;;;4.74;100.00
68193;BME280;55012;47.562;18.414;2023-02-02T11:07:04;99700.19;;;4.72;100.00
68193;BME280;55012;47.562;18.414;2023-02-02T11:09:32;99744.22;;;4.66;100.00
68193;BME280;55012;47.562;18.414;2023-02-02T11:12:05;99733.13;;;4.73;100.00
68193;BME280;55012;47.562;18.414;2023-02-02T11:17:24;99650.94;;;4.68;100.00
68193;BME280;55012;47.562;18.414;2023-02-02T11:19:50;99662.16;;;4.70;100.00
68193;BME280;55012;47.562;18.414;2023-02-02T11:22:36;99684.28;;;4.76;100.00
68193;BME280;55012;47.562;18.414;2023-02-02T11:25:24;99693.72;;;4.73;100.00
68193;BME280;55012;47.562;18.414;2023-02-02T11:27:50;99713.28;;;4.74;100.00
68193;BME280;55012;47.562;18.414;2023-02-02T11:30:32;99673.94;;;4.56;100.00
68193;BME280;55012;47.562;18.414;2023-02-02T11:32:58;99621.41;;;4.41;100.00
68193;BME280;55012;47.562;18.414;2023-02-02T11:35:26;99660.31;;;4.19;100.00
68193;BME280;55012;47.562;18.414;2023-02-02T11:38:04;99679.28;;;4.23;100.00
68193;BME280;55012;47.562;18.414;2023-02-02T11:40:35;99625.34;;;4.30;100.00
68193;BME280;55012;47.562;18.414;2023-02-02T11:43:05;99642.91;;;4.36;100.00
68193;BME280;55012;47.562;18.414;2023-02-02T11:45:40;99711.41;;;4.42;100.00
68193;BME280;55012;47.562;18.414;2023-02-02T11:48:15;99654.09;;;4.57;100.00
68193;BME280;55012;47.562;18.414;2023-02-02T11:50:50;99692.59;;;4.61;100.00
68193;BME280;55012;47.562;18.414;2023-02-02T11:53:31;99650.41;;;4.53;100.00
68193;BME280;55012;47.562;18.414;2023-02-02T11:56:09;99717.38;;;4.53;100.00
68193;BME280;55012;47.562;18.414;2023-02-02T12:01:31;99708.25;;;4.54;100.00
68193;BME280;55012;47.562;18.414;2023-02-02T12:04:00;99649.84;;;4.56;100.00
68193;BME280;55012;47.562;18.414;2023-02-02T12:08:58;99708.09;;;4.64;100.00
68193;BME280;55012;47.562;18.414;2023-02-02T12:16:50;99711.69;;;4.73;100.00
68193;BME280;55012;47.562;18.414;2023-02-02T12:19:56;99695.09;;;4.71;100.00
68193;BME280;55012;47.562;18.414;2023-02-02T12:30:58;99717.06;;;4.73;100.00
68193;BME280;55012;47.562;18.414;2023-02-02T12:36:24;99725.59;;;4.75;100.00
68193;BME280;55012;47.562;18.414;2023-02-02T12:39:07;99758.75;;;4.79;100.00
68193;BME280;55012;47.562;18.414;2023-02-02T12:44:56;99675.84;;;4.69;100.00
68193;BME280;55012;47.562;18.414;2023-02-02T12:47:53;99691.50;;;4.62;100.00
68193;BME280;55012;47.562;18.414;2023-02-02T12:51:16;99768.41;;;4.61;100.00
68193;BME280;55012;47.562;18.414;2023-02-02T13:08:58;99750.69;;;4.46;100.00
68193;BME280;55012;47.562;18.414;2023-02-02T13:11:43;99780.00;;;4.38;100.00
68193;BME280;55012;47.562;18.414;2023-02-02T13:16:52;99828.22;;;4.38;100.00
68193;BME280;55012;47.562;18.414;2023-02-02T13:19:40;99758.81;;;4.41;100.00
68193;BME280;55012;47.562;18.414;2023-02-02T13:22:15;99704.16;;;4.42;100.00
68193;BME280;55012;47.562;18.414;2023-02-02T13:24:44;99699.88;;;4.41;100.00
68193;BME280;55012;47.562;18.414;2023-02-02T13:27:14;99772.72;;;4.43;100.00
68193;BME280;55012;47.562;18.414;2023-02-02T13:29:46;99773.81;;;4.42;100.00
68193;BME280;55012;47.562;18.414;2023-02-02T13:32:33;99690.56;;;4.39;100.00
68193;BME280;55012;47.562;18.414;2023-02-02T13:38:00;99693.75;;;4.41;100.00
68193;BME280;55012;47.562;18.414;2023-02-02T13:40:37;99725.88;;;4.41;100.00
68193;BME280;55012;47.562;18.414;2023-02-02T13:45:54;99764.09;;;4.46;100.00
68193;BME280;55012;47.562;18.414;2023-02-02T13:48:45;99743.25;;;4.43;100.00
68193;BME280;55012;47.562;18.414;2023-02-02T14:02:58;99739.84;;;4.19;100.00
68193;BME280;55012;47.562;18.414;2023-02-02T14:05:36;99774.66;;;4.19;100.00
68193;BME280;55012;47.562;18.414;2023-02-02T14:10:33;99779.97;;;4.24;100.00
68193;BME280;55012;47.562;18.414;2023-02-02T14:13:09;99805.16;;;4.23;100.00
68193;BME280;55012;47.562;18.414;2023-02-02T14:16:01;99843.72;;;4.22;100.00
68193;BME280;55012;47.562;18.414;2023-02-02T14:40:33;99827.41;;;4.00;100.00
68193;BME280;55012;47.562;18.414;2023-02-02T14:48:38;99767.63;;;3.85;100.00
68193;BME280;55012;47.562;18.414;2023-02-02T14:51:21;99842.88;;;3.79;100.00
68193;BME280;55012;47.562;18.414;2023-02-02T14:53:49;99790.75;;;3.76;100.00
68193;BME280;55012;47.562;18.414;2023-02-02T14:56:17;99772.06;;;3.71;100.00
68193;BME280;55012;47.562;18.414;2023-02-02T14:58:46;99798.91;;;3.66;100.00
68193;BME280;55012;47.562;18.414;2023-02-02T15:03:56;99802.91;;;3.63;100.00
68193;BME280;55012;47.562;18.414;2023-02-02T15:06:42;99845.53;;;3.55;100.00
68193;BME280;55012;47.562;18.414;2023-02-02T15:25:38;99853.09;;;3.24;100.00
68193;BME280;55012;47.562;18.414;2023-02-02T15:33:55;99858.19;;;3.20;100.00
68193;BME280;55012;47.562;18.414;2023-02-02T15:36:31;99819.72;;;3.16;100.00
68193;BME280;55012;47.562;18.414;2023-02-02T15:39:00;99836.84;;;3.15;100.00
68193;BME280;55012;47.562;18.414;2023-02-02T15:41:32;99887.09;;;3.13;100.00
68193;BME280;55012;47.562;18.414;2023-02-02T15:43:59;99840.34;;;3.10;100.00
68193;BME280;55012;47.562;18.414;2023-02-02T15:46:29;99869.78;;;3.05;100.00
68193;BME280;55012;47.562;18.414;2023-02-02T15:51:45;99878.16;;;2.94;100.00
68193;BME280;55012;47.562;18.414;2023-02-02T15:54:32;99886.50;;;2.87;100.00
68193;BME280;55012;47.562;18.414;2023-02-02T15:57:00;99904.69;;;2.85;100.00
68193;BME280;55012;47.562;18.414;2023-02-02T15:59:38;99882.53;;;2.79;100.00
68193;BME280;55012;47.562;18.414;2023-02-02T16:04:38;99897.28;;;2.72;100.00